Qiryat Bialik, Israel
Current Conditions -  °F | °C
As of 11:50 AM on Thursday 18 Dec 2014 (Local Time) from LLHA Reporting Station
Clear Clear  
Wind Chill: 16°   Ceiling: Unl
Heat Index: 16°   Visibility: 6mi
Dew Point:   Wind: 14mph
Humidity: 59%   Direction: 120°ESE
Pressure: 30.12"   Gusts: NA
Location:  32.83°N, 35.08°E
Report Text: LLHA 180850Z 12012KT CAVOK 16/08 Q1020 RMK FEW100
Loading
Personal Weather Stations






























Interactive Weather Map New forecast layout! Learn more

10-Day Weather Forecast

Advertisements
Track Severe Weather on mobile